sensor_id;sensor_type;location;lat;lon;timestamp;P1;durP1;ratioP1;P2;durP2;ratioP2
1691;SDS011;843;52.054;8.552;2023-03-15T00:01:34;7.63;;;2.80;;
1691;SDS011;843;52.054;8.552;2023-03-15T00:04:00;5.53;;;2.30;;
1691;SDS011;843;52.054;8.552;2023-03-15T00:06:29;9.00;;;2.23;;
1691;SDS011;843;52.054;8.552;2023-03-15T00:08:57;9.47;;;2.50;;
1691;SDS011;843;52.054;8.552;2023-03-15T00:11:24;10.17;;;2.83;;
1691;SDS011;843;52.054;8.552;2023-03-15T00:13:52;6.20;;;2.40;;
1691;SDS011;843;52.054;8.552;2023-03-15T00:16:18;7.40;;;2.63;;
1691;SDS011;843;52.054;8.552;2023-03-15T00:18:45;6.50;;;2.40;;
1691;SDS011;843;52.054;8.552;2023-03-15T00:21:11;5.70;;;2.00;;
1691;SDS011;843;52.054;8.552;2023-03-15T00:23:38;12.83;;;3.00;;
1691;SDS011;843;52.054;8.552;2023-03-15T00:26:04;4.70;;;1.60;;
1691;SDS011;843;52.054;8.552;2023-03-15T00:28:31;8.80;;;1.90;;
1691;SDS011;843;52.054;8.552;2023-03-15T00:31:05;12.50;;;3.20;;
1691;SDS011;843;52.054;8.552;2023-03-15T00:33:33;12.57;;;2.73;;
1691;SDS011;843;52.054;8.552;2023-03-15T00:36:01;6.80;;;2.70;;
1691;SDS011;843;52.054;8.552;2023-03-15T00:38:27;3.03;;;1.70;;
1691;SDS011;843;52.054;8.552;2023-03-15T00:40:56;5.80;;;2.40;;
1691;SDS011;843;52.054;8.552;2023-03-15T00:43:22;10.63;;;3.00;;
1691;SDS011;843;52.054;8.552;2023-03-15T00:45:49;9.67;;;2.10;;
1691;SDS011;843;52.054;8.552;2023-03-15T00:48:17;6.63;;;2.03;;
1691;SDS011;843;52.054;8.552;2023-03-15T00:50:43;8.67;;;2.40;;
1691;SDS011;843;52.054;8.552;2023-03-15T00:53:09;10.00;;;2.50;;
1691;SDS011;843;52.054;8.552;2023-03-15T00:55:36;9.73;;;2.17;;
1691;SDS011;843;52.054;8.552;2023-03-15T00:58:02;7.83;;;2.10;;
1691;SDS011;843;52.054;8.552;2023-03-15T01:00:28;8.00;;;2.13;;
1691;SDS011;843;52.054;8.552;2023-03-15T01:02:55;8.30;;;2.00;;
1691;SDS011;843;52.054;8.552;2023-03-15T01:05:23;8.40;;;2.40;;
1691;SDS011;843;52.054;8.552;2023-03-15T01:07:50;9.90;;;2.47;;
1691;SDS011;843;52.054;8.552;2023-03-15T01:10:16;7.87;;;2.20;;
1691;SDS011;843;52.054;8.552;2023-03-15T01:12:43;11.00;;;2.47;;
1691;SDS011;843;52.054;8.552;2023-03-15T01:15:10;9.53;;;2.47;;
1691;SDS011;843;52.054;8.552;2023-03-15T01:17:37;3.83;;;1.73;;
1691;SDS011;843;52.054;8.552;2023-03-15T01:20:04;8.50;;;2.43;;
1691;SDS011;843;52.054;8.552;2023-03-15T01:22:32;9.60;;;2.50;;
1691;SDS011;843;52.054;8.552;2023-03-15T01:24:58;4.73;;;2.07;;
1691;SDS011;843;52.054;8.552;2023-03-15T01:27:25;6.77;;;2.40;;
1691;SDS011;843;52.054;8.552;2023-03-15T01:29:51;7.93;;;2.30;;
1691;SDS011;843;52.054;8.552;2023-03-15T01:32:18;5.47;;;2.20;;
1691;SDS011;843;52.054;8.552;2023-03-15T01:34:44;4.10;;;1.83;;
1691;SDS011;843;52.054;8.552;2023-03-15T01:37:10;5.70;;;2.13;;
1691;SDS011;843;52.054;8.552;2023-03-15T01:39:40;5.73;;;2.30;;
1691;SDS011;843;52.054;8.552;2023-03-15T01:42:06;5.53;;;2.43;;
1691;SDS011;843;52.054;8.552;2023-03-15T01:44:52;10.10;;;2.80;;
1691;SDS011;843;52.054;8.552;2023-03-15T01:47:19;16.03;;;3.00;;
1691;SDS011;843;52.054;8.552;2023-03-15T01:49:46;9.10;;;2.70;;
1691;SDS011;843;52.054;8.552;2023-03-15T01:52:14;4.47;;;2.07;;
1691;SDS011;843;52.054;8.552;2023-03-15T01:54:44;10.53;;;2.60;;
1691;SDS011;843;52.054;8.552;2023-03-15T01:57:15;7.53;;;2.60;;
1691;SDS011;843;52.054;8.552;2023-03-15T01:59:42;8.50;;;2.50;;
1691;SDS011;843;52.054;8.552;2023-03-15T02:02:09;6.53;;;2.73;;
1691;SDS011;843;52.054;8.552;2023-03-15T02:04:39;8.50;;;3.10;;
1691;SDS011;843;52.054;8.552;2023-03-15T02:07:10;9.13;;;3.20;;
1691;SDS011;843;52.054;8.552;2023-03-15T02:09:39;5.03;;;2.73;;
1691;SDS011;843;52.054;8.552;2023-03-15T02:12:09;4.93;;;2.80;;
1691;SDS011;843;52.054;8.552;2023-03-15T02:14:36;8.97;;;2.93;;
1691;SDS011;843;52.054;8.552;2023-03-15T02:17:02;8.93;;;3.43;;
1691;SDS011;843;52.054;8.552;2023-03-15T02:19:34;9.83;;;3.30;;
1691;SDS011;843;52.054;8.552;2023-03-15T02:22:05;5.73;;;3.47;;
1691;SDS011;843;52.054;8.552;2023-03-15T02:24:37;5.63;;;3.40;;
1691;SDS011;843;52.054;8.552;2023-03-15T02:27:09;6.23;;;3.20;;
1691;SDS011;843;52.054;8.552;2023-03-15T02:29:37;4.00;;;2.90;;
1691;SDS011;843;52.054;8.552;2023-03-15T02:32:03;7.70;;;2.80;;
1691;SDS011;843;52.054;8.552;2023-03-15T02:34:30;3.03;;;2.30;;
1691;SDS011;843;52.054;8.552;2023-03-15T02:36:56;5.03;;;2.67;;
1691;SDS011;843;52.054;8.552;2023-03-15T02:39:23;3.57;;;3.27;;
1691;SDS011;843;52.054;8.552;2023-03-15T02:41:52;3.70;;;2.47;;
1691;SDS011;843;52.054;8.552;2023-03-15T02:44:20;4.13;;;3.10;;
1691;SDS011;843;52.054;8.552;2023-03-15T02:46:50;3.53;;;2.90;;
1691;SDS011;843;52.054;8.552;2023-03-15T02:49:17;3.00;;;2.70;;
1691;SDS011;843;52.054;8.552;2023-03-15T02:51:48;5.37;;;2.90;;
1691;SDS011;843;52.054;8.552;2023-03-15T02:54:15;5.77;;;4.00;;
1691;SDS011;843;52.054;8.552;2023-03-15T02:56:41;5.27;;;2.93;;
1691;SDS011;843;52.054;8.552;2023-03-15T02:59:07;3.63;;;3.20;;
1691;SDS011;843;52.054;8.552;2023-03-15T03:01:36;3.50;;;3.20;;
1691;SDS011;843;52.054;8.552;2023-03-15T03:04:04;4.67;;;3.30;;
1691;SDS011;843;52.054;8.552;2023-03-15T03:06:31;4.20;;;3.70;;
1691;SDS011;843;52.054;8.552;2023-03-15T03:08:57;4.70;;;3.50;;
1691;SDS011;843;52.054;8.552;2023-03-15T03:11:23;3.10;;;2.90;;
1691;SDS011;843;52.054;8.552;2023-03-15T03:13:50;3.37;;;3.07;;
1691;SDS011;843;52.054;8.552;2023-03-15T03:16:16;7.80;;;3.90;;
1691;SDS011;843;52.054;8.552;2023-03-15T03:18:43;4.30;;;3.87;;
1691;SDS011;843;52.054;8.552;2023-03-15T03:21:10;4.90;;;4.40;;
1691;SDS011;843;52.054;8.552;2023-03-15T03:23:38;5.13;;;4.63;;
1691;SDS011;843;52.054;8.552;2023-03-15T03:26:10;5.10;;;4.43;;
1691;SDS011;843;52.054;8.552;2023-03-15T03:28:41;6.27;;;5.67;;
1691;SDS011;843;52.054;8.552;2023-03-15T03:31:13;5.00;;;4.60;;
1691;SDS011;843;52.054;8.552;2023-03-15T03:33:40;6.73;;;5.37;;
1691;SDS011;843;52.054;8.552;2023-03-15T03:36:07;6.07;;;5.47;;
1691;SDS011;843;52.054;8.552;2023-03-15T03:38:34;5.40;;;4.90;;
1691;SDS011;843;52.054;8.552;2023-03-15T03:41:01;5.13;;;3.30;;
1691;SDS011;843;52.054;8.552;2023-03-15T03:43:27;6.73;;;5.33;;
1691;SDS011;843;52.054;8.552;2023-03-15T03:45:54;7.53;;;5.37;;
1691;SDS011;843;52.054;8.552;2023-03-15T03:48:20;5.30;;;4.80;;
1691;SDS011;843;52.054;8.552;2023-03-15T03:50:46;8.63;;;5.03;;
1691;SDS011;843;52.054;8.552;2023-03-15T03:53:13;5.47;;;4.80;;
1691;SDS011;843;52.054;8.552;2023-03-15T03:55:40;5.17;;;4.70;;
1691;SDS011;843;52.054;8.552;2023-03-15T03:58:10;5.60;;;4.53;;
1691;SDS011;843;52.054;8.552;2023-03-15T04:00:37;5.10;;;4.60;;
1691;SDS011;843;52.054;8.552;2023-03-15T04:03:04;5.13;;;4.40;;
1691;SDS011;843;52.054;8.552;2023-03-15T04:05:30;5.63;;;5.20;;
1691;SDS011;843;52.054;8.552;2023-03-15T04:07:56;6.20;;;5.03;;
1691;SDS011;843;52.054;8.552;2023-03-15T04:10:25;5.33;;;4.83;;
1691;SDS011;843;52.054;8.552;2023-03-15T04:12:53;5.17;;;4.10;;
1691;SDS011;843;52.054;8.552;2023-03-15T04:15:20;5.23;;;4.50;;
1691;SDS011;843;52.054;8.552;2023-03-15T04:17:47;6.23;;;4.50;;
1691;SDS011;843;52.054;8.552;2023-03-15T04:20:13;6.50;;;5.17;;
1691;SDS011;843;52.054;8.552;2023-03-15T04:22:41;6.97;;;5.40;;
1691;SDS011;843;52.054;8.552;2023-03-15T04:25:13;6.20;;;5.20;;
1691;SDS011;843;52.054;8.552;2023-03-15T04:27:39;6.60;;;5.60;;
1691;SDS011;843;52.054;8.552;2023-03-15T04:30:08;6.70;;;5.53;;
1691;SDS011;843;52.054;8.552;2023-03-15T04:32:35;9.03;;;6.00;;
1691;SDS011;843;52.054;8.552;2023-03-15T04:35:01;8.70;;;5.80;;
1691;SDS011;843;52.054;8.552;2023-03-15T04:37:28;7.33;;;5.60;;
1691;SDS011;843;52.054;8.552;2023-03-15T04:39:56;5.60;;;5.10;;
1691;SDS011;843;52.054;8.552;2023-03-15T04:42:22;7.50;;;5.43;;
1691;SDS011;843;52.054;8.552;2023-03-15T04:44:50;7.23;;;6.10;;
1691;SDS011;843;52.054;8.552;2023-03-15T04:47:19;8.50;;;6.40;;
1691;SDS011;843;52.054;8.552;2023-03-15T04:49:46;6.73;;;5.90;;
1691;SDS011;843;52.054;8.552;2023-03-15T04:52:13;9.00;;;6.73;;
1691;SDS011;843;52.054;8.552;2023-03-15T04:54:39;7.93;;;5.97;;
1691;SDS011;843;52.054;8.552;2023-03-15T04:57:06;7.50;;;5.60;;
1691;SDS011;843;52.054;8.552;2023-03-15T04:59:32;9.10;;;5.50;;
1691;SDS011;843;52.054;8.552;2023-03-15T05:01:59;6.90;;;5.80;;
1691;SDS011;843;52.054;8.552;2023-03-15T05:04:26;9.67;;;5.97;;
1691;SDS011;843;52.054;8.552;2023-03-15T05:06:53;9.93;;;6.87;;
1691;SDS011;843;52.054;8.552;2023-03-15T05:09:19;7.60;;;5.97;;
1691;SDS011;843;52.054;8.552;2023-03-15T05:11:46;8.60;;;5.70;;
1691;SDS011;843;52.054;8.552;2023-03-15T05:14:12;7.57;;;6.03;;
1691;SDS011;843;52.054;8.552;2023-03-15T05:16:38;7.73;;;6.23;;
1691;SDS011;843;52.054;8.552;2023-03-15T05:19:05;11.07;;;6.53;;
1691;SDS011;843;52.054;8.552;2023-03-15T05:21:33;9.83;;;6.10;;
1691;SDS011;843;52.054;8.552;2023-03-15T05:23:59;12.47;;;6.00;;
1691;SDS011;843;52.054;8.552;2023-03-15T05:26:25;6.90;;;5.80;;
1691;SDS011;843;52.054;8.552;2023-03-15T05:28:52;7.50;;;5.70;;
1691;SDS011;843;52.054;8.552;2023-03-15T05:31:18;11.43;;;6.63;;
1691;SDS011;843;52.054;8.552;2023-03-15T05:33:45;8.63;;;5.53;;
1691;SDS011;843;52.054;8.552;2023-03-15T05:36:11;12.50;;;6.90;;
1691;SDS011;843;52.054;8.552;2023-03-15T05:38:40;13.63;;;6.93;;
1691;SDS011;843;52.054;8.552;2023-03-15T05:41:07;9.23;;;5.97;;
1691;SDS011;843;52.054;8.552;2023-03-15T05:43:34;8.67;;;6.50;;
1691;SDS011;843;52.054;8.552;2023-03-15T05:46:00;8.70;;;7.10;;
1691;SDS011;843;52.054;8.552;2023-03-15T05:48:27;8.53;;;6.20;;
1691;SDS011;843;52.054;8.552;2023-03-15T05:50:53;11.30;;;6.50;;
1691;SDS011;843;52.054;8.552;2023-03-15T05:53:19;9.07;;;7.33;;
1691;SDS011;843;52.054;8.552;2023-03-15T05:55:47;7.80;;;6.03;;
1691;SDS011;843;52.054;8.552;2023-03-15T05:58:14;9.40;;;7.70;;
1691;SDS011;843;52.054;8.552;2023-03-15T06:00:40;10.43;;;6.17;;
1691;SDS011;843;52.054;8.552;2023-03-15T06:03:07;10.90;;;7.00;;
1691;SDS011;843;52.054;8.552;2023-03-15T06:05:33;16.60;;;6.63;;
1691;SDS011;843;52.054;8.552;2023-03-15T06:07:59;9.13;;;6.50;;
1691;SDS011;843;52.054;8.552;2023-03-15T06:10:26;14.10;;;7.57;;
1691;SDS011;843;52.054;8.552;2023-03-15T06:12:54;12.50;;;7.50;;
1691;SDS011;843;52.054;8.552;2023-03-15T06:15:20;9.53;;;6.87;;
1691;SDS011;843;52.054;8.552;2023-03-15T06:17:46;9.33;;;5.93;;
1691;SDS011;843;52.054;8.552;2023-03-15T06:20:14;12.40;;;7.00;;
1691;SDS011;843;52.054;8.552;2023-03-15T06:22:40;11.93;;;6.97;;
1691;SDS011;843;52.054;8.552;2023-03-15T06:25:07;11.70;;;6.50;;
1691;SDS011;843;52.054;8.552;2023-03-15T06:27:34;20.07;;;6.53;;
1691;SDS011;843;52.054;8.552;2023-03-15T06:30:02;10.77;;;6.53;;
1691;SDS011;843;52.054;8.552;2023-03-15T06:32:28;13.07;;;7.70;;
1691;SDS011;843;52.054;8.552;2023-03-15T06:34:55;10.10;;;6.83;;
1691;SDS011;843;52.054;8.552;2023-03-15T06:37:21;10.03;;;6.60;;
1691;SDS011;843;52.054;8.552;2023-03-15T06:39:48;13.80;;;6.70;;
1691;SDS011;843;52.054;8.552;2023-03-15T06:42:15;12.03;;;7.60;;
1691;SDS011;843;52.054;8.552;2023-03-15T06:44:41;14.93;;;7.10;;
1691;SDS011;843;52.054;8.552;2023-03-15T06:47:09;9.37;;;6.87;;
1691;SDS011;843;52.054;8.552;2023-03-15T06:49:36;13.87;;;6.77;;
1691;SDS011;843;52.054;8.552;2023-03-15T06:52:03;9.30;;;6.00;;
1691;SDS011;843;52.054;8.552;2023-03-15T06:54:29;13.13;;;6.53;;
1691;SDS011;843;52.054;8.552;2023-03-15T06:56:56;8.57;;;6.60;;
1691;SDS011;843;52.054;8.552;2023-03-15T06:59:22;9.27;;;5.03;;
1691;SDS011;843;52.054;8.552;2023-03-15T07:01:49;6.50;;;5.07;;
1691;SDS011;843;52.054;8.552;2023-03-15T07:04:16;7.27;;;4.23;;
1691;SDS011;843;52.054;8.552;2023-03-15T07:06:43;5.57;;;4.50;;
1691;SDS011;843;52.054;8.552;2023-03-15T07:09:09;11.13;;;5.47;;
1691;SDS011;843;52.054;8.552;2023-03-15T07:11:36;8.50;;;5.53;;
1691;SDS011;843;52.054;8.552;2023-03-15T07:14:02;6.03;;;4.73;;
1691;SDS011;843;52.054;8.552;2023-03-15T07:16:28;4.87;;;4.37;;
1691;SDS011;843;52.054;8.552;2023-03-15T07:18:55;6.00;;;4.47;;
1691;SDS011;843;52.054;8.552;2023-03-15T07:21:25;8.57;;;4.87;;
1691;SDS011;843;52.054;8.552;2023-03-15T07:23:51;8.33;;;4.70;;
1691;SDS011;843;52.054;8.552;2023-03-15T07:26:18;8.90;;;5.47;;
1691;SDS011;843;52.054;8.552;2023-03-15T07:28:44;7.97;;;4.53;;
1691;SDS011;843;52.054;8.552;2023-03-15T07:31:11;7.13;;;4.43;;
1691;SDS011;843;52.054;8.552;2023-03-15T07:33:37;6.80;;;4.30;;
1691;SDS011;843;52.054;8.552;2023-03-15T07:36:04;8.17;;;4.83;;
1691;SDS011;843;52.054;8.552;2023-03-15T07:38:33;10.27;;;5.13;;
1691;SDS011;843;52.054;8.552;2023-03-15T07:41:00;10.43;;;5.33;;
1691;SDS011;843;52.054;8.552;2023-03-15T07:43:27;5.40;;;4.40;;
1691;SDS011;843;52.054;8.552;2023-03-15T07:45:54;7.60;;;4.83;;
1691;SDS011;843;52.054;8.552;2023-03-15T07:48:20;11.73;;;4.90;;
1691;SDS011;843;52.054;8.552;2023-03-15T07:50:46;8.87;;;4.80;;
1691;SDS011;843;52.054;8.552;2023-03-15T07:53:13;10.47;;;4.40;;
1691;SDS011;843;52.054;8.552;2023-03-15T07:55:41;6.50;;;3.83;;
1691;SDS011;843;52.054;8.552;2023-03-15T07:58:07;7.63;;;4.00;;
1691;SDS011;843;52.054;8.552;2023-03-15T08:00:34;13.00;;;4.40;;
1691;SDS011;843;52.054;8.552;2023-03-15T08:03:02;7.20;;;3.80;;
1691;SDS011;843;52.054;8.552;2023-03-15T08:05:29;10.93;;;4.83;;
1691;SDS011;843;52.054;8.552;2023-03-15T08:07:56;6.80;;;4.80;;
1691;SDS011;843;52.054;8.552;2023-03-15T08:10:23;8.67;;;4.70;;
1691;SDS011;843;52.054;8.552;2023-03-15T08:12:51;9.00;;;4.23;;
1691;SDS011;843;52.054;8.552;2023-03-15T08:15:22;11.67;;;5.53;;
1691;SDS011;843;52.054;8.552;2023-03-15T08:17:49;7.07;;;4.40;;
1691;SDS011;843;52.054;8.552;2023-03-15T08:20:15;13.40;;;4.70;;
1691;SDS011;843;52.054;8.552;2023-03-15T08:22:42;6.57;;;4.40;;
1691;SDS011;843;52.054;8.552;2023-03-15T08:25:10;11.43;;;4.77;;
1691;SDS011;843;52.054;8.552;2023-03-15T08:27:37;8.27;;;5.03;;
1691;SDS011;843;52.054;8.552;2023-03-15T08:30:07;8.27;;;3.93;;
1691;SDS011;843;52.054;8.552;2023-03-15T08:32:33;6.77;;;4.20;;
1691;SDS011;843;52.054;8.552;2023-03-15T08:35:00;7.40;;;3.80;;
1691;SDS011;843;52.054;8.552;2023-03-15T08:37:26;9.20;;;4.63;;
1691;SDS011;843;52.054;8.552;2023-03-15T08:39:54;6.47;;;3.93;;
1691;SDS011;843;52.054;8.552;2023-03-15T08:42:26;6.83;;;3.83;;
1691;SDS011;843;52.054;8.552;2023-03-15T08:44:52;5.53;;;3.90;;
1691;SDS011;843;52.054;8.552;2023-03-15T08:47:25;7.73;;;3.40;;
1691;SDS011;843;52.054;8.552;2023-03-15T08:49:51;9.83;;;5.00;;
1691;SDS011;843;52.054;8.552;2023-03-15T08:52:18;12.83;;;4.50;;
1691;SDS011;843;52.054;8.552;2023-03-15T08:54:45;6.50;;;4.23;;
1691;SDS011;843;52.054;8.552;2023-03-15T08:57:11;12.10;;;4.60;;
1691;SDS011;843;52.054;8.552;2023-03-15T08:59:38;11.90;;;3.30;;
1691;SDS011;843;52.054;8.552;2023-03-15T09:02:04;5.50;;;3.17;;
1691;SDS011;843;52.054;8.552;2023-03-15T09:04:32;9.60;;;4.70;;
1691;SDS011;843;52.054;8.552;2023-03-15T09:06:58;15.57;;;4.13;;
1691;SDS011;843;52.054;8.552;2023-03-15T09:09:25;6.73;;;3.40;;
1691;SDS011;843;52.054;8.552;2023-03-15T09:11:52;11.13;;;3.97;;
1691;SDS011;843;52.054;8.552;2023-03-15T09:14:19;5.40;;;3.80;;
1691;SDS011;843;52.054;8.552;2023-03-15T09:16:46;12.30;;;4.07;;
1691;SDS011;843;52.054;8.552;2023-03-15T09:19:12;10.83;;;4.57;;
1691;SDS011;843;52.054;8.552;2023-03-15T09:21:40;6.50;;;4.23;;
1691;SDS011;843;52.054;8.552;2023-03-15T09:24:09;9.23;;;3.90;;
1691;SDS011;843;52.054;8.552;2023-03-15T09:26:35;8.93;;;3.77;;
1691;SDS011;843;52.054;8.552;2023-03-15T09:29:02;8.20;;;3.83;;
1691;SDS011;843;52.054;8.552;2023-03-15T09:31:28;8.60;;;3.20;;
1691;SDS011;843;52.054;8.552;2023-03-15T09:33:55;7.07;;;3.80;;
1691;SDS011;843;52.054;8.552;2023-03-15T09:36:22;11.23;;;3.60;;
1691;SDS011;843;52.054;8.552;2023-03-15T09:38:50;8.60;;;3.37;;
1691;SDS011;843;52.054;8.552;2023-03-15T09:41:19;8.40;;;3.43;;
1691;SDS011;843;52.054;8.552;2023-03-15T09:43:55;6.30;;;3.47;;
1691;SDS011;843;52.054;8.552;2023-03-15T09:46:27;7.83;;;3.00;;
1691;SDS011;843;52.054;8.552;2023-03-15T09:48:55;6.00;;;2.77;;
1691;SDS011;843;52.054;8.552;2023-03-15T09:51:29;4.83;;;2.70;;
1691;SDS011;843;52.054;8.552;2023-03-15T09:54:02;11.57;;;3.30;;
1691;SDS011;843;52.054;8.552;2023-03-15T09:56:30;6.10;;;3.57;;
1691;SDS011;843;52.054;8.552;2023-03-15T09:58:58;7.33;;;2.93;;
1691;SDS011;843;52.054;8.552;2023-03-15T10:01:27;7.30;;;3.00;;
1691;SDS011;843;52.054;8.552;2023-03-15T10:03:54;8.00;;;3.03;;
1691;SDS011;843;52.054;8.552;2023-03-15T10:06:23;7.13;;;2.93;;
1691;SDS011;843;52.054;8.552;2023-03-15T10:08:53;5.60;;;3.10;;
1691;SDS011;843;52.054;8.552;2023-03-15T10:11:22;5.70;;;2.80;;
1691;SDS011;843;52.054;8.552;2023-03-15T10:14:00;10.63;;;3.07;;
1691;SDS011;843;52.054;8.552;2023-03-15T10:16:35;6.03;;;2.67;;
1691;SDS011;843;52.054;8.552;2023-03-15T10:19:05;4.90;;;2.43;;
1691;SDS011;843;52.054;8.552;2023-03-15T10:21:38;10.13;;;3.30;;
1691;SDS011;843;52.054;8.552;2023-03-15T10:24:09;5.00;;;2.80;;
1691;SDS011;843;52.054;8.552;2023-03-15T10:26:40;5.13;;;2.60;;
1691;SDS011;843;52.054;8.552;2023-03-15T10:29:09;7.80;;;2.53;;
1691;SDS011;843;52.054;8.552;2023-03-15T10:31:37;4.37;;;2.60;;
1691;SDS011;843;52.054;8.552;2023-03-15T10:34:05;5.83;;;2.53;;
1691;SDS011;843;52.054;8.552;2023-03-15T10:36:31;7.20;;;2.60;;
1691;SDS011;843;52.054;8.552;2023-03-15T10:38:58;4.03;;;1.90;;
1691;SDS011;843;52.054;8.552;2023-03-15T10:41:28;5.50;;;2.10;;
1691;SDS011;843;52.054;8.552;2023-03-15T10:43:57;3.77;;;2.40;;
1691;SDS011;843;52.054;8.552;2023-03-15T10:46:23;6.73;;;3.00;;
1691;SDS011;843;52.054;8.552;2023-03-15T10:48:55;5.10;;;2.37;;
1691;SDS011;843;52.054;8.552;2023-03-15T10:51:23;3.47;;;2.10;;
1691;SDS011;843;52.054;8.552;2023-03-15T10:53:51;3.50;;;1.83;;
1691;SDS011;843;52.054;8.552;2023-03-15T10:56:21;8.80;;;2.23;;
1691;SDS011;843;52.054;8.552;2023-03-15T10:58:50;6.83;;;2.30;;
1691;SDS011;843;52.054;8.552;2023-03-15T11:01:23;3.83;;;1.70;;
1691;SDS011;843;52.054;8.552;2023-03-15T11:04:01;5.50;;;2.03;;
1691;SDS011;843;52.054;8.552;2023-03-15T11:06:31;5.97;;;2.40;;
1691;SDS011;843;52.054;8.552;2023-03-15T11:09:09;4.50;;;1.57;;
1691;SDS011;843;52.054;8.552;2023-03-15T11:11:52;4.23;;;1.67;;
1691;SDS011;843;52.054;8.552;2023-03-15T11:14:19;5.60;;;1.63;;
1691;SDS011;843;52.054;8.552;2023-03-15T11:16:47;5.03;;;1.63;;
1691;SDS011;843;52.054;8.552;2023-03-15T11:19:14;3.97;;;1.70;;
1691;SDS011;843;52.054;8.552;2023-03-15T11:21:41;6.70;;;2.07;;
1691;SDS011;843;52.054;8.552;2023-03-15T11:24:14;6.10;;;1.60;;
1691;SDS011;843;52.054;8.552;2023-03-15T11:26:44;5.00;;;1.93;;
1691;SDS011;843;52.054;8.552;2023-03-15T11:29:17;2.93;;;1.53;;
1691;SDS011;843;52.054;8.552;2023-03-15T11:31:46;4.57;;;2.23;;
1691;SDS011;843;52.054;8.552;2023-03-15T11:34:14;4.17;;;1.77;;
1691;SDS011;843;52.054;8.552;2023-03-15T11:36:45;4.57;;;1.70;;
1691;SDS011;843;52.054;8.552;2023-03-15T11:39:18;3.70;;;1.67;;
1691;SDS011;843;52.054;8.552;2023-03-15T11:41:50;4.83;;;1.60;;
1691;SDS011;843;52.054;8.552;2023-03-15T11:44:20;3.80;;;2.10;;
1691;SDS011;843;52.054;8.552;2023-03-15T11:46:53;5.73;;;1.73;;
1691;SDS011;843;52.054;8.552;2023-03-15T11:49:25;5.83;;;2.07;;
1691;SDS011;843;52.054;8.552;2023-03-15T11:51:54;4.50;;;1.87;;
1691;SDS011;843;52.054;8.552;2023-03-15T11:54:21;2.60;;;1.60;;
1691;SDS011;843;52.054;8.552;2023-03-15T11:56:51;3.27;;;1.47;;
1691;SDS011;843;52.054;8.552;2023-03-15T11:59:18;3.20;;;1.47;;
1691;SDS011;843;52.054;8.552;2023-03-15T12:01:46;3.80;;;1.67;;
1691;SDS011;843;52.054;8.552;2023-03-15T12:04:32;5.33;;;1.40;;
1691;SDS011;843;52.054;8.552;2023-03-15T12:07:02;6.10;;;1.67;;
1691;SDS011;843;52.054;8.552;2023-03-15T12:09:39;4.83;;;1.93;;
1691;SDS011;843;52.054;8.552;2023-03-15T12:14:47;3.30;;;1.50;;
1691;SDS011;843;52.054;8.552;2023-03-15T12:20:03;5.63;;;1.27;;
1691;SDS011;843;52.054;8.552;2023-03-15T12:22:33;3.20;;;1.63;;
1691;SDS011;843;52.054;8.552;2023-03-15T12:25:02;3.80;;;1.40;;
1691;SDS011;843;52.054;8.552;2023-03-15T12:27:30;2.60;;;1.23;;
1691;SDS011;843;52.054;8.552;2023-03-15T12:30:00;5.07;;;1.77;;
1691;SDS011;843;52.054;8.552;2023-03-15T12:32:27;3.23;;;1.50;;
1691;SDS011;843;52.054;8.552;2023-03-15T12:34:54;2.53;;;1.50;;
1691;SDS011;843;52.054;8.552;2023-03-15T12:37:24;2.40;;;1.27;;
1691;SDS011;843;52.054;8.552;2023-03-15T12:39:58;2.43;;;1.47;;
1691;SDS011;843;52.054;8.552;2023-03-15T12:50:48;3.63;;;1.37;;
1691;SDS011;843;52.054;8.552;2023-03-15T12:53:18;5.50;;;1.60;;
1691;SDS011;843;52.054;8.552;2023-03-15T12:55:46;5.23;;;2.10;;
1691;SDS011;843;52.054;8.552;2023-03-15T12:58:13;6.83;;;1.37;;
1691;SDS011;843;52.054;8.552;2023-03-15T13:00:41;3.53;;;1.40;;
1691;SDS011;843;52.054;8.552;2023-03-15T13:03:10;5.93;;;2.20;;
1691;SDS011;843;52.054;8.552;2023-03-15T13:05:42;1.20;;;1.10;;
1691;SDS011;843;52.054;8.552;2023-03-15T13:08:15;4.43;;;1.40;;
1691;SDS011;843;52.054;8.552;2023-03-15T13:10:50;4.03;;;1.47;;
1691;SDS011;843;52.054;8.552;2023-03-15T13:13:22;6.63;;;2.00;;
1691;SDS011;843;52.054;8.552;2023-03-15T13:15:56;3.67;;;1.30;;
1691;SDS011;843;52.054;8.552;2023-03-15T13:18:23;5.20;;;1.67;;
1691;SDS011;843;52.054;8.552;2023-03-15T13:20:52;4.10;;;1.57;;
1691;SDS011;843;52.054;8.552;2023-03-15T13:23:25;7.87;;;1.83;;
1691;SDS011;843;52.054;8.552;2023-03-15T13:26:09;3.37;;;1.60;;
1691;SDS011;843;52.054;8.552;2023-03-15T13:28:41;4.37;;;1.33;;
1691;SDS011;843;52.054;8.552;2023-03-15T13:31:12;2.03;;;1.40;;
1691;SDS011;843;52.054;8.552;2023-03-15T13:33:42;2.30;;;1.50;;
1691;SDS011;843;52.054;8.552;2023-03-15T13:36:12;5.00;;;1.40;;
1691;SDS011;843;52.054;8.552;2023-03-15T13:38:40;3.27;;;1.20;;
1691;SDS011;843;52.054;8.552;2023-03-15T13:41:16;4.47;;;1.67;;
1691;SDS011;843;52.054;8.552;2023-03-15T13:43:43;2.33;;;1.20;;
1691;SDS011;843;52.054;8.552;2023-03-15T13:46:09;2.90;;;1.60;;
1691;SDS011;843;52.054;8.552;2023-03-15T13:48:36;2.07;;;1.40;;
1691;SDS011;843;52.054;8.552;2023-03-15T13:51:03;7.07;;;1.53;;
1691;SDS011;843;52.054;8.552;2023-03-15T13:53:31;2.50;;;1.70;;
1691;SDS011;843;52.054;8.552;2023-03-15T13:55:58;3.67;;;1.30;;
1691;SDS011;843;52.054;8.552;2023-03-15T13:58:27;4.53;;;1.13;;
1691;SDS011;843;52.054;8.552;2023-03-15T14:00:58;4.67;;;1.77;;
1691;SDS011;843;52.054;8.552;2023-03-15T14:03:25;3.67;;;1.50;;
1691;SDS011;843;52.054;8.552;2023-03-15T14:05:52;3.80;;;1.37;;
1691;SDS011;843;52.054;8.552;2023-03-15T14:08:23;3.93;;;1.40;;
1691;SDS011;843;52.054;8.552;2023-03-15T14:11:02;3.33;;;1.27;;
1691;SDS011;843;52.054;8.552;2023-03-15T14:13:31;3.80;;;1.60;;
1691;SDS011;843;52.054;8.552;2023-03-15T14:15:59;2.00;;;1.30;;
1691;SDS011;843;52.054;8.552;2023-03-15T14:18:28;5.33;;;2.10;;
1691;SDS011;843;52.054;8.552;2023-03-15T14:20:56;5.10;;;1.53;;
1691;SDS011;843;52.054;8.552;2023-03-15T14:23:24;4.67;;;1.53;;
1691;SDS011;843;52.054;8.552;2023-03-15T14:25:51;3.30;;;1.57;;
1691;SDS011;843;52.054;8.552;2023-03-15T14:28:18;2.73;;;1.23;;
1691;SDS011;843;52.054;8.552;2023-03-15T14:30:51;2.90;;;1.40;;
1691;SDS011;843;52.054;8.552;2023-03-15T14:33:28;2.50;;;1.20;;
1691;SDS011;843;52.054;8.552;2023-03-15T14:35:56;2.90;;;1.53;;
1691;SDS011;843;52.054;8.552;2023-03-15T14:38:24;4.17;;;1.60;;
1691;SDS011;843;52.054;8.552;2023-03-15T14:40:51;4.43;;;1.57;;
1691;SDS011;843;52.054;8.552;2023-03-15T14:43:18;8.73;;;1.27;;
1691;SDS011;843;52.054;8.552;2023-03-15T14:45:45;3.37;;;1.53;;
1691;SDS011;843;52.054;8.552;2023-03-15T14:48:13;5.57;;;2.10;;
1691;SDS011;843;52.054;8.552;2023-03-15T14:50:41;4.07;;;1.73;;
1691;SDS011;843;52.054;8.552;2023-03-15T14:53:10;3.77;;;1.73;;
1691;SDS011;843;52.054;8.552;2023-03-15T14:55:38;2.80;;;1.13;;
1691;SDS011;843;52.054;8.552;2023-03-15T14:58:08;3.17;;;2.10;;
1691;SDS011;843;52.054;8.552;2023-03-15T15:00:36;5.47;;;1.77;;
1691;SDS011;843;52.054;8.552;2023-03-15T15:03:03;2.20;;;1.40;;
1691;SDS011;843;52.054;8.552;2023-03-15T15:05:34;5.77;;;1.33;;
1691;SDS011;843;52.054;8.552;2023-03-15T15:08:02;1.67;;;1.40;;
1691;SDS011;843;52.054;8.552;2023-03-15T15:10:29;3.77;;;2.10;;
1691;SDS011;843;52.054;8.552;2023-03-15T15:12:57;6.20;;;2.00;;
1691;SDS011;843;52.054;8.552;2023-03-15T15:15:23;5.50;;;1.77;;
1691;SDS011;843;52.054;8.552;2023-03-15T15:17:50;17.57;;;5.70;;
1691;SDS011;843;52.054;8.552;2023-03-15T15:20:19;8.87;;;2.40;;
1691;SDS011;843;52.054;8.552;2023-03-15T15:22:48;3.47;;;2.43;;
1691;SDS011;843;52.054;8.552;2023-03-15T15:25:15;4.00;;;2.07;;
1691;SDS011;843;52.054;8.552;2023-03-15T15:27:42;7.23;;;2.07;;
1691;SDS011;843;52.054;8.552;2023-03-15T15:30:10;4.83;;;1.87;;
1691;SDS011;843;52.054;8.552;2023-03-15T15:32:36;3.20;;;2.00;;
1691;SDS011;843;52.054;8.552;2023-03-15T15:35:03;9.43;;;1.77;;
1691;SDS011;843;52.054;8.552;2023-03-15T15:37:29;2.73;;;1.70;;
1691;SDS011;843;52.054;8.552;2023-03-15T15:39:57;4.40;;;1.40;;
1691;SDS011;843;52.054;8.552;2023-03-15T15:42:24;3.90;;;1.73;;
1691;SDS011;843;52.054;8.552;2023-03-15T15:44:50;3.70;;;1.63;;
1691;SDS011;843;52.054;8.552;2023-03-15T15:47:17;5.73;;;2.40;;